createdAt,value
2023-12-22T00:02:29.700Z,8.32
2023-12-22T00:04:58.033Z,8.88
2023-12-22T00:07:25.940Z,9.13
2023-12-22T00:09:56.618Z,12.27
2023-12-22T00:12:24.725Z,12.68
2023-12-22T00:14:52.490Z,13.13
2023-12-22T00:17:20.302Z,13.18
2023-12-22T00:19:48.437Z,12.33
2023-12-22T00:22:16.282Z,10.63
2023-12-22T00:24:44.073Z,12.82
2023-12-22T00:27:11.900Z,12.65
2023-12-22T00:29:39.624Z,11.02
2023-12-22T00:32:10.762Z,10.80
2023-12-22T00:34:38.810Z,9.38
2023-12-22T00:37:06.768Z,10.50
2023-12-22T00:39:34.608Z,12.02
2023-12-22T00:42:04.745Z,10.43
2023-12-22T00:44:32.344Z,9.80
2023-12-22T00:47:00.318Z,10.20
2023-12-22T00:49:28.148Z,9.52
2023-12-22T00:51:55.732Z,10.85
2023-12-22T00:54:23.244Z,10.15
2023-12-22T00:56:51.813Z,9.87
2023-12-22T00:59:19.362Z,10.48
2023-12-22T01:01:47.867Z,9.30
2023-12-22T01:04:16.321Z,9.20
2023-12-22T01:06:44.401Z,9.82
2023-12-22T01:09:11.969Z,9.00
2023-12-22T01:11:39.932Z,10.43
2023-12-22T01:14:08.389Z,9.60
2023-12-22T01:16:36.057Z,8.70
2023-12-22T01:19:04.356Z,9.38
2023-12-22T01:21:32.517Z,10.17
2023-12-22T01:24:00.319Z,10.60
2023-12-22T01:26:28.966Z,8.70
2023-12-22T01:28:56.682Z,10.60
2023-12-22T01:31:24.543Z,9.95
2023-12-22T01:33:52.756Z,8.03
2023-12-22T01:36:20.638Z,6.90
2023-12-22T01:38:49.068Z,6.90
2023-12-22T01:41:17.130Z,7.47
2023-12-22T01:43:44.958Z,8.35
2023-12-22T01:46:13.656Z,8.47
2023-12-22T01:48:41.979Z,7.30
2023-12-22T01:51:10.018Z,6.20
2023-12-22T01:53:39.969Z,4.75
2023-12-22T01:56:08.350Z,4.70
2023-12-22T01:58:37.628Z,4.17
2023-12-22T02:01:06.227Z,3.37
2023-12-22T02:03:34.474Z,4.53
2023-12-22T02:06:02.509Z,5.65
2023-12-22T02:08:33.026Z,2.55
2023-12-22T02:11:00.965Z,1.80
2023-12-22T02:13:29.914Z,3.37
2023-12-22T02:16:05.262Z,2.65
2023-12-22T02:18:40.241Z,2.55
2023-12-22T02:21:07.738Z,3.58
2023-12-22T02:23:35.845Z,2.00
2023-12-22T02:26:26.764Z,4.05
2023-12-22T02:28:57.377Z,3.35
2023-12-22T02:31:34.820Z,3.70
2023-12-22T02:34:06.328Z,7.07
2023-12-22T02:36:36.498Z,5.43
2023-12-22T02:39:05.476Z,3.67
2023-12-22T02:41:33.010Z,5.22
2023-12-22T02:44:00.854Z,5.55
2023-12-22T02:46:28.910Z,4.07
2023-12-22T02:48:56.770Z,4.20
2023-12-22T02:51:24.544Z,4.50
2023-12-22T02:53:52.622Z,3.47
2023-12-22T02:56:20.814Z,5.90
2023-12-22T02:58:48.627Z,4.30
2023-12-22T03:01:16.631Z,3.07
2023-12-22T03:03:44.362Z,3.50
2023-12-22T03:06:12.313Z,3.72
2023-12-22T03:08:42.569Z,3.55
2023-12-22T03:11:10.312Z,3.37
2023-12-22T03:13:37.850Z,1.67
2023-12-22T03:16:09.769Z,5.15
2023-12-22T03:18:40.846Z,3.55
2023-12-22T03:21:08.978Z,1.27
2023-12-22T03:23:36.744Z,1.65
2023-12-22T03:26:05.392Z,3.00
2023-12-22T03:28:34.999Z,2.25
2023-12-22T03:31:02.909Z,2.58
2023-12-22T03:33:30.727Z,1.58
2023-12-22T03:35:58.774Z,1.83
2023-12-22T03:38:26.479Z,6.40
2023-12-22T03:40:54.099Z,2.58
2023-12-22T03:43:22.262Z,1.15
2023-12-22T03:45:49.974Z,2.58
2023-12-22T03:48:17.586Z,3.83
2023-12-22T03:50:45.735Z,3.13
2023-12-22T03:53:13.544Z,2.80
2023-12-22T03:55:41.159Z,3.75
2023-12-22T03:58:09.017Z,3.05
2023-12-22T04:00:36.746Z,3.53
2023-12-22T04:03:05.257Z,2.97
2023-12-22T04:05:32.963Z,3.78
2023-12-22T04:08:00.695Z,6.20
2023-12-22T04:10:28.902Z,3.50
2023-12-22T04:12:56.619Z,6.35
2023-12-22T04:15:24.136Z,4.37
2023-12-22T04:17:52.063Z,5.20
2023-12-22T04:20:20.018Z,3.25
2023-12-22T04:22:47.811Z,2.25
2023-12-22T04:25:15.938Z,5.78
2023-12-22T04:27:43.744Z,3.97
2023-12-22T04:30:14.772Z,2.58
2023-12-22T04:32:42.980Z,3.25
2023-12-22T04:35:10.840Z,2.78
2023-12-22T04:37:38.623Z,2.08
2023-12-22T04:40:07.306Z,3.10
2023-12-22T04:42:34.821Z,3.37
2023-12-22T04:45:02.610Z,2.53
2023-12-22T04:47:30.419Z,3.90
2023-12-22T04:49:58.263Z,7.47
2023-12-22T04:52:26.113Z,3.87
2023-12-22T04:54:54.377Z,4.35
2023-12-22T04:57:23.188Z,2.40
2023-12-22T04:59:50.954Z,2.10
2023-12-22T05:02:18.864Z,2.10
2023-12-22T05:04:46.561Z,4.57
2023-12-22T05:07:14.409Z,3.42
2023-12-22T05:09:45.449Z,4.72
2023-12-22T05:12:13.265Z,3.80
2023-12-22T05:14:41.005Z,3.65
2023-12-22T05:17:08.894Z,6.80
2023-12-22T05:19:36.581Z,2.85
2023-12-22T05:22:04.675Z,3.75
2023-12-22T05:24:32.797Z,3.00
2023-12-22T05:27:00.532Z,2.83
2023-12-22T05:29:28.085Z,4.77
2023-12-22T05:31:55.980Z,4.37
2023-12-22T05:34:23.884Z,4.05
2023-12-22T05:36:51.829Z,5.80
2023-12-22T05:39:19.932Z,1.83
2023-12-22T05:41:47.694Z,3.93
2023-12-22T05:44:15.417Z,5.32
2023-12-22T05:46:43.369Z,4.47
2023-12-22T05:49:11.249Z,7.60
2023-12-22T05:51:42.312Z,6.05
2023-12-22T05:54:11.458Z,7.27
2023-12-22T05:56:39.420Z,4.45
2023-12-22T05:59:07.045Z,5.32
2023-12-22T06:01:34.949Z,3.45
2023-12-22T06:04:03.458Z,6.25
2023-12-22T06:06:31.395Z,4.30
2023-12-22T06:08:59.919Z,5.93
2023-12-22T06:11:27.785Z,4.75
2023-12-22T06:13:55.703Z,5.80
2023-12-22T06:16:23.591Z,7.80
2023-12-22T06:18:51.787Z,6.53
2023-12-22T06:21:19.652Z,4.00
2023-12-22T06:23:47.483Z,9.80
2023-12-22T06:26:15.570Z,4.97
2023-12-22T06:28:43.406Z,6.93
2023-12-22T06:31:21.473Z,8.73
2023-12-22T06:33:50.946Z,4.28
2023-12-22T06:36:20.391Z,10.27
2023-12-22T06:38:51.952Z,5.62
2023-12-22T06:41:27.814Z,3.95
2023-12-22T06:44:02.941Z,9.20
2023-12-22T06:46:31.965Z,5.75
2023-12-22T06:49:02.551Z,5.90
2023-12-22T06:51:32.820Z,6.90
2023-12-22T06:54:03.619Z,7.57
2023-12-22T06:56:33.137Z,4.73
2023-12-22T06:59:01.588Z,8.18
2023-12-22T07:01:34.148Z,3.60
2023-12-22T07:04:04.018Z,4.60
2023-12-22T07:06:33.243Z,6.43
2023-12-22T07:09:13.204Z,8.93
2023-12-22T07:11:52.072Z,6.57
2023-12-22T07:14:19.603Z,7.93
2023-12-22T07:16:47.496Z,4.57
2023-12-22T07:19:15.122Z,3.00
2023-12-22T07:21:45.626Z,3.00
2023-12-22T07:24:16.517Z,4.25
2023-12-22T07:26:47.558Z,5.05
2023-12-22T07:29:15.504Z,5.05
2023-12-22T07:31:44.097Z,5.40
2023-12-22T07:34:13.257Z,7.23
2023-12-22T07:36:45.944Z,5.07
2023-12-22T07:39:19.898Z,4.82
2023-12-22T07:41:49.345Z,4.80
2023-12-22T07:44:17.157Z,5.60
2023-12-22T07:46:44.697Z,5.23
2023-12-22T07:49:14.812Z,3.60
2023-12-22T07:51:44.270Z,6.78
2023-12-22T07:54:12.134Z,5.32
2023-12-22T07:56:39.941Z,3.20
2023-12-22T07:59:18.441Z,9.23
2023-12-22T08:01:54.813Z,3.67
2023-12-22T08:04:22.751Z,5.37
2023-12-22T08:06:50.946Z,3.50
2023-12-22T08:09:18.663Z,7.22
2023-12-22T08:11:48.292Z,6.17
2023-12-22T08:14:16.252Z,3.72
2023-12-22T08:16:45.625Z,3.97
2023-12-22T08:19:14.062Z,5.12
2023-12-22T08:21:46.218Z,6.65
2023-12-22T08:24:21.084Z,5.70
2023-12-22T08:26:51.806Z,3.05
2023-12-22T08:29:20.919Z,4.70
2023-12-22T08:31:49.019Z,5.95
2023-12-22T08:34:16.774Z,4.78
2023-12-22T08:36:45.537Z,11.37
2023-12-22T08:39:14.217Z,5.93
2023-12-22T08:41:42.777Z,4.47
2023-12-22T08:44:11.277Z,5.43
2023-12-22T08:46:39.089Z,5.90
2023-12-22T08:49:06.984Z,6.93
2023-12-22T08:51:37.849Z,7.57
2023-12-22T08:54:05.687Z,6.97
2023-12-22T08:56:33.274Z,4.95
2023-12-22T08:59:01.680Z,10.07
2023-12-22T09:01:29.328Z,3.13
2023-12-22T09:03:56.858Z,4.37
2023-12-22T09:06:26.078Z,8.57
2023-12-22T09:08:54.434Z,5.75
2023-12-22T09:11:23.066Z,4.35
2023-12-22T09:13:51.404Z,6.27
2023-12-22T09:16:28.293Z,9.57
2023-12-22T09:18:56.325Z,3.83
2023-12-22T09:21:24.349Z,4.90
2023-12-22T09:23:52.158Z,5.75
2023-12-22T09:26:20.064Z,5.27
2023-12-22T09:28:47.706Z,4.60
2023-12-22T09:31:15.217Z,6.22
2023-12-22T09:33:43.963Z,4.95
2023-12-22T09:36:13.195Z,4.65
2023-12-22T09:38:43.017Z,3.40
2023-12-22T09:41:11.877Z,3.15
2023-12-22T09:43:43.276Z,4.78
2023-12-22T09:46:11.481Z,3.17
2023-12-22T09:48:41.339Z,2.75
2023-12-22T09:51:09.661Z,4.23
2023-12-22T09:53:39.752Z,2.08
2023-12-22T09:56:07.998Z,3.62
2023-12-22T09:58:36.871Z,5.37
2023-12-22T10:01:09.256Z,3.50
2023-12-22T10:03:38.365Z,5.83
2023-12-22T10:06:07.215Z,4.22
2023-12-22T10:08:35.457Z,5.22
2023-12-22T10:11:06.136Z,2.75
2023-12-22T10:13:34.722Z,3.95
2023-12-22T10:16:02.897Z,6.00
2023-12-22T10:18:31.059Z,3.45
2023-12-22T10:20:59.080Z,4.95
2023-12-22T10:23:26.932Z,3.72
2023-12-22T10:25:55.036Z,2.17
2023-12-22T10:28:26.006Z,5.70
2023-12-22T10:30:54.864Z,2.90
2023-12-22T10:33:23.026Z,2.17
2023-12-22T10:35:53.577Z,4.85
2023-12-22T10:38:21.346Z,3.05
2023-12-22T10:40:50.019Z,3.50
2023-12-22T10:43:17.846Z,4.43
2023-12-22T10:45:45.964Z,4.90
2023-12-22T10:48:14.340Z,3.72
2023-12-22T10:50:42.694Z,3.78
2023-12-22T10:53:13.679Z,1.70
2023-12-22T10:55:42.984Z,4.10
2023-12-22T10:58:10.672Z,4.68
2023-12-22T11:00:42.685Z,3.12
2023-12-22T11:03:14.335Z,6.93
2023-12-22T11:05:45.720Z,5.23
2023-12-22T11:08:14.520Z,3.78
2023-12-22T11:10:46.677Z,6.55
2023-12-22T11:13:15.280Z,3.87
2023-12-22T11:15:44.292Z,5.95
2023-12-22T11:18:12.506Z,6.60
2023-12-22T11:20:40.944Z,3.30
2023-12-22T11:23:09.568Z,5.37
2023-12-22T11:25:37.873Z,5.35
2023-12-22T11:28:07.368Z,3.83
2023-12-22T11:30:35.289Z,3.73
2023-12-22T11:33:03.893Z,3.35
2023-12-22T11:35:33.704Z,2.00
2023-12-22T11:38:04.911Z,1.83
2023-12-22T11:40:33.158Z,3.90
2023-12-22T11:43:01.584Z,1.53
2023-12-22T11:45:32.140Z,3.70
2023-12-22T11:48:08.242Z,4.95
2023-12-22T11:50:35.857Z,2.65
2023-12-22T11:53:22.948Z,3.22
2023-12-22T11:55:57.768Z,3.93
2023-12-22T11:58:38.273Z,3.10
2023-12-22T12:01:13.679Z,2.72
2023-12-22T12:03:44.016Z,3.03
2023-12-22T12:06:14.909Z,4.62
2023-12-22T12:08:43.480Z,5.13
2023-12-22T12:11:11.049Z,3.35
2023-12-22T12:13:43.806Z,5.03
2023-12-22T12:16:13.528Z,3.20
2023-12-22T12:18:42.473Z,4.55
2023-12-22T12:21:11.459Z,2.10
2023-12-22T12:23:42.671Z,2.00
2023-12-22T12:26:12.246Z,4.45
2023-12-22T12:28:46.971Z,1.83
2023-12-22T12:31:14.789Z,1.95
2023-12-22T12:33:43.215Z,3.87
2023-12-22T12:36:12.055Z,4.07
2023-12-22T12:38:51.736Z,2.62
2023-12-22T12:41:29.035Z,2.50
2023-12-22T12:43:57.916Z,1.75
2023-12-22T12:46:36.278Z,3.73
2023-12-22T12:49:07.787Z,2.05
2023-12-22T12:51:47.976Z,3.03
2023-12-22T12:54:15.911Z,3.08
2023-12-22T12:56:44.408Z,4.47
2023-12-22T12:59:17.207Z,1.73
2023-12-22T13:01:47.050Z,4.22
2023-12-22T13:04:15.943Z,3.87
2023-12-22T13:06:47.474Z,4.00
2023-12-22T13:09:16.660Z,3.80
2023-12-22T13:11:47.331Z,5.20
2023-12-22T13:14:29.024Z,4.82
2023-12-22T13:16:58.716Z,7.70
2023-12-22T13:19:28.285Z,2.42
2023-12-22T13:21:56.857Z,2.92
2023-12-22T13:24:27.105Z,2.67
2023-12-22T13:27:07.069Z,2.33
2023-12-22T13:29:49.498Z,7.68
2023-12-22T13:32:18.567Z,5.35
2023-12-22T13:34:51.108Z,2.67
2023-12-22T13:37:19.651Z,4.60
2023-12-22T13:39:48.015Z,2.17
2023-12-22T13:42:17.554Z,5.97
2023-12-22T13:44:48.264Z,9.50
2023-12-22T13:47:20.282Z,7.55
2023-12-22T13:49:49.672Z,4.50
2023-12-22T13:52:33.715Z,4.28
2023-12-22T13:55:03.572Z,3.85
2023-12-22T13:57:31.261Z,2.15
2023-12-22T13:59:59.223Z,3.05
2023-12-22T14:02:27.778Z,2.70
2023-12-22T14:04:56.013Z,1.48
2023-12-22T14:07:23.979Z,2.78
2023-12-22T14:09:51.517Z,3.15
2023-12-22T14:12:25.008Z,2.08
2023-12-22T14:14:59.675Z,2.17
2023-12-22T14:17:28.866Z,3.47
2023-12-22T14:19:58.154Z,4.30
2023-12-22T14:22:29.220Z,2.35
2023-12-22T14:25:00.230Z,3.58
2023-12-22T14:27:28.329Z,3.43
2023-12-22T14:29:56.515Z,3.00
2023-12-22T14:32:24.347Z,3.22
2023-12-22T14:34:52.760Z,3.53
2023-12-22T14:37:22.421Z,7.28
2023-12-22T14:39:50.368Z,5.43
2023-12-22T14:42:18.519Z,3.85
2023-12-22T14:44:46.875Z,6.30
2023-12-22T14:47:15.003Z,4.87
2023-12-22T14:49:43.120Z,4.87
2023-12-22T14:52:11.300Z,3.50
2023-12-22T14:54:39.409Z,4.62
2023-12-22T14:57:07.634Z,4.57
2023-12-22T14:59:36.252Z,3.08
2023-12-22T15:02:04.177Z,3.90
2023-12-22T15:04:35.157Z,3.07
2023-12-22T15:07:05.045Z,3.72
2023-12-22T15:09:33.331Z,2.20
2023-12-22T15:12:01.450Z,2.12
2023-12-22T15:14:29.845Z,3.25
2023-12-22T15:17:02.997Z,3.97
2023-12-22T15:19:31.568Z,2.90
2023-12-22T15:21:59.414Z,3.97
2023-12-22T15:24:27.565Z,4.60
2023-12-22T15:26:55.551Z,4.80
2023-12-22T15:29:25.462Z,7.97
2023-12-22T15:31:57.964Z,6.22
2023-12-22T15:34:26.173Z,4.28
2023-12-22T15:36:54.094Z,4.30
2023-12-22T15:39:24.325Z,7.12
2023-12-22T15:41:52.190Z,6.13
2023-12-22T15:44:20.105Z,6.87
2023-12-22T15:46:47.704Z,5.65
2023-12-22T15:49:15.525Z,4.43
2023-12-22T15:51:43.195Z,5.60
2023-12-22T15:54:11.675Z,6.87
2023-12-22T15:56:40.403Z,6.68
2023-12-22T15:59:08.596Z,6.80
2023-12-22T16:01:43.393Z,5.32
2023-12-22T16:04:14.377Z,7.40
2023-12-22T16:06:42.798Z,5.87
2023-12-22T16:09:11.499Z,9.60
2023-12-22T16:11:40.078Z,5.45
2023-12-22T16:14:08.309Z,6.43
2023-12-22T16:16:36.781Z,9.82
2023-12-22T16:19:06.190Z,8.33
2023-12-22T16:21:42.071Z,6.40
2023-12-22T16:24:10.698Z,6.57
2023-12-22T16:26:39.518Z,5.40
2023-12-22T16:29:08.394Z,6.50
2023-12-22T16:31:40.393Z,9.07
2023-12-22T16:34:08.491Z,7.40
2023-12-22T16:36:36.973Z,5.68
2023-12-22T16:39:05.226Z,7.43
2023-12-22T16:41:39.076Z,6.12
2023-12-22T16:44:07.218Z,5.90
2023-12-22T16:46:34.857Z,8.80
2023-12-22T16:49:04.447Z,7.03
2023-12-22T16:51:32.296Z,8.50
2023-12-22T16:54:01.069Z,8.32
2023-12-22T16:56:28.732Z,5.80
2023-12-22T16:58:56.613Z,8.05
2023-12-22T17:01:36.304Z,8.68
2023-12-22T17:04:09.262Z,8.57
2023-12-22T17:06:47.934Z,11.02
2023-12-22T17:09:16.584Z,8.77
2023-12-22T17:11:44.602Z,7.12
2023-12-22T17:14:12.552Z,8.57
2023-12-22T17:16:40.683Z,9.18
2023-12-22T17:19:08.419Z,6.82
2023-12-22T17:21:38.170Z,8.40
2023-12-22T17:24:06.219Z,11.95
2023-12-22T17:26:34.343Z,13.85
2023-12-22T17:29:03.917Z,8.95
2023-12-22T17:31:32.387Z,7.97
2023-12-22T17:34:00.486Z,10.17
2023-12-22T17:36:31.825Z,12.55
2023-12-22T17:39:00.451Z,11.63
2023-12-22T17:41:28.569Z,11.40
2023-12-22T17:43:56.081Z,8.98
2023-12-22T17:46:24.132Z,9.57
2023-12-22T17:48:51.810Z,8.10
2023-12-22T17:51:19.501Z,8.63
2023-12-22T17:53:47.376Z,13.70
2023-12-22T17:56:16.839Z,5.75
2023-12-22T17:58:45.902Z,6.17
2023-12-22T18:01:13.753Z,3.83
2023-12-22T18:03:41.651Z,8.82
2023-12-22T18:06:09.466Z,8.57
2023-12-22T18:08:37.406Z,9.63
2023-12-22T18:11:05.317Z,7.27
2023-12-22T18:13:33.922Z,6.75
2023-12-22T18:16:01.758Z,4.47
2023-12-22T18:18:29.990Z,2.85
2023-12-22T18:20:57.615Z,5.80
2023-12-22T18:23:25.678Z,5.97
2023-12-22T18:25:53.578Z,4.45
2023-12-22T18:28:21.133Z,5.90
2023-12-22T18:30:48.735Z,5.78
2023-12-22T18:33:16.716Z,8.63
2023-12-22T18:35:44.311Z,5.70
2023-12-22T18:38:12.241Z,4.55
2023-12-22T18:40:40.171Z,5.57
2023-12-22T18:43:08.540Z,4.35
2023-12-22T18:45:36.552Z,5.22
2023-12-22T18:48:05.124Z,2.27
2023-12-22T18:50:33.402Z,4.62
2023-12-22T18:53:04.139Z,8.13
2023-12-22T18:55:33.122Z,27.10
2023-12-22T18:58:01.259Z,8.05
2023-12-22T19:00:29.231Z,6.43
2023-12-22T19:02:59.644Z,5.40
2023-12-22T19:05:27.979Z,4.20
2023-12-22T19:07:55.979Z,2.65
2023-12-22T19:10:24.699Z,4.18
2023-12-22T19:12:52.510Z,5.43
2023-12-22T19:15:20.570Z,5.72
2023-12-22T19:17:49.146Z,3.35
2023-12-22T19:20:17.072Z,2.58
2023-12-22T19:22:45.049Z,3.30
2023-12-22T19:25:13.234Z,3.70
2023-12-22T19:27:40.867Z,1.90
2023-12-22T19:30:08.888Z,5.18
2023-12-22T19:32:36.823Z,4.53
2023-12-22T19:35:05.991Z,6.45
2023-12-22T19:37:35.402Z,3.37
2023-12-22T19:40:06.997Z,3.20
2023-12-22T19:42:34.615Z,4.78
2023-12-22T19:45:02.789Z,4.05
2023-12-22T19:47:31.172Z,3.92
2023-12-22T19:49:59.244Z,2.90
2023-12-22T19:52:30.992Z,1.65
2023-12-22T19:55:02.555Z,4.87
2023-12-22T19:57:30.777Z,4.10
2023-12-22T19:59:58.344Z,2.42
2023-12-22T20:02:27.346Z,4.20
2023-12-22T20:04:56.066Z,2.42
2023-12-22T20:07:24.199Z,3.10
2023-12-22T20:09:52.124Z,3.90
2023-12-22T20:12:20.035Z,2.60
2023-12-22T20:14:47.665Z,3.27
2023-12-22T20:17:15.663Z,4.68
2023-12-22T20:19:45.464Z,1.98
2023-12-22T20:22:14.212Z,2.95
2023-12-22T20:24:42.114Z,2.80
2023-12-22T20:27:10.050Z,4.13
2023-12-22T20:29:37.622Z,2.45
2023-12-22T20:32:06.829Z,2.42
2023-12-22T20:34:34.806Z,6.30
2023-12-22T20:37:02.663Z,2.95
2023-12-22T20:39:30.481Z,2.00
2023-12-22T20:41:58.310Z,1.80
2023-12-22T20:44:27.448Z,2.37
2023-12-22T20:46:55.299Z,2.55
2023-12-22T20:49:23.727Z,1.92
2023-12-22T20:51:53.860Z,2.30
2023-12-22T20:54:21.429Z,3.90
2023-12-22T20:56:49.591Z,4.15
2023-12-22T20:59:17.514Z,3.12
2023-12-22T21:01:48.297Z,3.45
2023-12-22T21:04:17.429Z,2.10
2023-12-22T21:06:45.570Z,2.53
2023-12-22T21:09:14.159Z,5.62
2023-12-22T21:11:42.040Z,4.62
2023-12-22T21:14:09.687Z,9.25
2023-12-22T21:16:37.593Z,4.83
2023-12-22T21:19:05.844Z,3.65
2023-12-22T21:21:34.995Z,3.28
2023-12-22T21:24:02.857Z,2.58
2023-12-22T21:26:30.995Z,2.45
2023-12-22T21:28:59.813Z,3.40
2023-12-22T21:31:28.016Z,2.70
2023-12-22T21:33:56.183Z,3.00
2023-12-22T21:36:25.267Z,3.65
2023-12-22T21:38:55.694Z,2.08
2023-12-22T21:41:24.230Z,3.53
2023-12-22T21:43:52.045Z,2.92
2023-12-22T21:46:20.773Z,1.75
2023-12-22T21:48:49.370Z,2.95
2023-12-22T21:51:17.063Z,1.80
2023-12-22T21:53:44.729Z,4.03
2023-12-22T21:56:20.549Z,2.35
2023-12-22T21:58:48.141Z,2.42
2023-12-22T22:01:16.244Z,2.15
2023-12-22T22:03:44.318Z,2.58
2023-12-22T22:06:12.092Z,1.83
2023-12-22T22:08:40.001Z,2.97
2023-12-22T22:11:07.916Z,3.92
2023-12-22T22:13:36.007Z,2.55
2023-12-22T22:16:04.314Z,4.50
2023-12-22T22:18:32.755Z,2.87
2023-12-22T22:21:00.601Z,1.67
2023-12-22T22:23:28.179Z,1.75
2023-12-22T22:25:56.014Z,1.50
2023-12-22T22:28:24.069Z,2.03
2023-12-22T22:30:52.862Z,1.73
2023-12-22T22:33:21.718Z,1.55
2023-12-22T22:35:49.619Z,2.00
2023-12-22T22:40:45.528Z,2.08
2023-12-22T22:43:13.041Z,1.90
2023-12-22T22:45:42.429Z,1.90
2023-12-22T22:48:10.736Z,1.73
2023-12-22T22:50:38.556Z,1.42
2023-12-22T22:53:09.869Z,2.28
2023-12-22T22:55:37.885Z,4.00
2023-12-22T22:58:08.575Z,2.95
2023-12-22T23:00:37.214Z,3.08
2023-12-22T23:03:05.499Z,3.58
2023-12-22T23:05:36.479Z,3.15
2023-12-22T23:08:05.231Z,3.37
2023-12-22T23:10:33.393Z,2.00
2023-12-22T23:13:00.945Z,2.40
2023-12-22T23:15:28.537Z,2.30
2023-12-22T23:17:56.945Z,1.85
2023-12-22T23:20:24.929Z,2.07
2023-12-22T23:25:20.889Z,1.42
2023-12-22T23:27:48.928Z,1.37
2023-12-22T23:30:16.947Z,1.70
2023-12-22T23:32:45.279Z,1.20
2023-12-22T23:35:13.334Z,0.90
2023-12-22T23:37:41.343Z,1.00
2023-12-22T23:40:09.730Z,1.12
2023-12-22T23:42:39.471Z,1.08
2023-12-22T23:45:08.005Z,1.43
2023-12-22T23:47:36.149Z,0.88
2023-12-22T23:50:04.386Z,1.23
2023-12-22T23:52:32.420Z,1.27
2023-12-22T23:55:00.319Z,1.25
2023-12-22T23:57:28.397Z,0.97
2023-12-22T23:59:56.176Z,1.23
